SWA3838 KMDW-KMCO
Flight info
| Callsign | SWA3838 |
|---|---|
| Flight time | 2h 22m |
| Altitude | 37000 |
| Route | DENNT DARCY DREGS DUMGE SCOTO SWAPP Q79 THRSR ZJAYX GRNCH5 |
| Aircraft | B738/M-SADE2E3GIJ4RWZ/LB1D1 |
Departure
| Time | 2026-04-25 08:55 |
|---|---|
| Airport | Chicago Midway International Airport (KMDW) |
Arrival
| Time | 2026-04-25 11:18 |
|---|---|
| Airport | Orlando International Airport (KMCO) |
| Time | Latitude | Longitude | Altitude | Speed | Heading |
|---|---|---|---|---|---|
| 2026-04-25 08:05 | 41.78586 | -87.74572 | 613 ft | 0 kts | 7° |
| 2026-04-25 08:45 | 41.78584 | -87.74573 | 613 ft | 1 kts | 7° |
| 2026-04-25 08:46 | 41.78569 | -87.74575 | 613 ft | 2 kts | 7° |
| 2026-04-25 08:46 | 41.78554 | -87.74577 | 613 ft | 2 kts | 7° |
| 2026-04-25 08:46 | 41.78545 | -87.74579 | 613 ft | 1 kts | 7° |
| 2026-04-25 08:46 | 41.78530 | -87.74578 | 613 ft | 2 kts | 339° |
| 2026-04-25 08:47 | 41.78517 | -87.74569 | 613 ft | 2 kts | 317° |
| 2026-04-25 08:47 | 41.78508 | -87.74553 | 613 ft | 2 kts | 293° |
| 2026-04-25 08:47 | 41.78504 | -87.74534 | 613 ft | 2 kts | 270° |
| 2026-04-25 08:47 | 41.78507 | -87.74514 | 613 ft | 2 kts | 246° |
| 2026-04-25 08:48 | 41.78513 | -87.74500 | 613 ft | 0 kts | 226° |
| 2026-04-25 08:48 | 41.78518 | -87.74493 | 613 ft | 1 kts | 223° |
| 2026-04-25 08:48 | 41.78519 | -87.74493 | 613 ft | 0 kts | 223° |
| 2026-04-25 08:49 | 41.78518 | -87.74493 | 613 ft | 0 kts | 223° |
| 2026-04-25 08:50 | 41.78503 | -87.74513 | 613 ft | 6 kts | 225° |
| 2026-04-25 08:50 | 41.78474 | -87.74558 | 613 ft | 5 kts | 249° |
| 2026-04-25 08:50 | 41.78490 | -87.74618 | 613 ft | 7 kts | 308° |
| 2026-04-25 08:50 | 41.78534 | -87.74683 | 613 ft | 9 kts | 313° |
| 2026-04-25 08:51 | 41.78582 | -87.74749 | 613 ft | 12 kts | 314° |
| 2026-04-25 08:51 | 41.78611 | -87.74844 | 613 ft | 10 kts | 242° |
| 2026-04-25 08:51 | 41.78560 | -87.74912 | 613 ft | 11 kts | 222° |
| 2026-04-25 08:51 | 41.78505 | -87.74983 | 613 ft | 10 kts | 223° |
| 2026-04-25 08:52 | 41.78443 | -87.75060 | 613 ft | 12 kts | 223° |
| 2026-04-25 08:52 | 41.78380 | -87.75141 | 614 ft | 11 kts | 223° |
| 2026-04-25 08:52 | 41.78325 | -87.75210 | 616 ft | 12 kts | 223° |
| 2026-04-25 08:52 | 41.78264 | -87.75288 | 616 ft | 12 kts | 223° |
| 2026-04-25 08:53 | 41.78198 | -87.75372 | 616 ft | 13 kts | 223° |
| 2026-04-25 08:53 | 41.78139 | -87.75446 | 619 ft | 10 kts | 223° |
| 2026-04-25 08:53 | 41.78083 | -87.75518 | 619 ft | 14 kts | 224° |
| 2026-04-25 08:53 | 41.78007 | -87.75613 | 621 ft | 13 kts | 223° |
| 2026-04-25 08:54 | 41.77943 | -87.75695 | 623 ft | 12 kts | 224° |
| 2026-04-25 08:54 | 41.77913 | -87.75789 | 623 ft | 10 kts | 267° |
| 2026-04-25 08:54 | 41.77915 | -87.75887 | 623 ft | 9 kts | 298° |
| 2026-04-25 08:54 | 41.77954 | -87.75880 | 623 ft | 6 kts | 36° |
| 2026-04-25 08:55 | 41.78007 | -87.75815 | 622 ft | 25 kts | 44° |
| 2026-04-25 08:55 | 41.78338 | -87.75401 | 616 ft | 101 kts | 43° |
| 2026-04-25 08:55 | 41.78994 | -87.74565 | 659 ft | 153 kts | 43° |
| 2026-04-25 08:55 | 41.79724 | -87.73620 | 1499 ft | 143 kts | 41° |
| 2026-04-25 08:56 | 41.80430 | -87.72781 | 2003 ft | 140 kts | 39° |
| 2026-04-25 08:56 | 41.81194 | -87.71871 | 2288 ft | 149 kts | 41° |
| 2026-04-25 08:56 | 41.81953 | -87.70920 | 2703 ft | 150 kts | 41° |
| 2026-04-25 08:56 | 41.82713 | -87.69961 | 3080 ft | 153 kts | 41° |
| 2026-04-25 08:57 | 41.83500 | -87.68973 | 3470 ft | 155 kts | 40° |
| 2026-04-25 08:57 | 41.84285 | -87.67988 | 3882 ft | 158 kts | 40° |
| 2026-04-25 08:57 | 41.85074 | -87.66869 | 4135 ft | 178 kts | 56° |
| 2026-04-25 08:57 | 41.85286 | -87.65140 | 4395 ft | 206 kts | 101° |
| 2026-04-25 08:58 | 41.84465 | -87.63446 | 4680 ft | 234 kts | 142° |
| 2026-04-25 08:58 | 41.82901 | -87.62736 | 5088 ft | 250 kts | 180° |
| 2026-04-25 08:58 | 41.81127 | -87.63062 | 5447 ft | 265 kts | 195° |
| 2026-04-25 08:58 | 41.79290 | -87.63675 | 5859 ft | 279 kts | 195° |
| 2026-04-25 08:59 | 41.77353 | -87.64252 | 6342 ft | 291 kts | 193° |
| 2026-04-25 08:59 | 41.75365 | -87.64756 | 7045 ft | 295 kts | 191° |
| 2026-04-25 08:59 | 41.73315 | -87.65233 | 7716 ft | 300 kts | 191° |
| 2026-04-25 08:59 | 41.71267 | -87.65700 | 8446 ft | 302 kts | 190° |
| 2026-04-25 09:00 | 41.69180 | -87.66177 | 9182 ft | 306 kts | 190° |
| 2026-04-25 09:00 | 41.67065 | -87.66663 | 9837 ft | 312 kts | 190° |
| 2026-04-25 09:00 | 41.64921 | -87.67159 | 10466 ft | 319 kts | 190° |
| 2026-04-25 09:00 | 41.62675 | -87.67680 | 10859 ft | 336 kts | 190° |
| 2026-04-25 09:01 | 41.60337 | -87.68221 | 11375 ft | 347 kts | 190° |
| 2026-04-25 09:01 | 41.57971 | -87.68768 | 12160 ft | 349 kts | 190° |
| 2026-04-25 09:01 | 41.55584 | -87.69320 | 12899 ft | 353 kts | 191° |
| 2026-04-25 09:01 | 41.53123 | -87.69888 | 13632 ft | 358 kts | 191° |
| 2026-04-25 09:02 | 41.50682 | -87.70452 | 14396 ft | 361 kts | 191° |
| 2026-04-25 09:02 | 41.48223 | -87.71021 | 15194 ft | 363 kts | 191° |
| 2026-04-25 09:02 | 41.45710 | -87.71601 | 15862 ft | 368 kts | 191° |
| 2026-04-25 09:02 | 41.43217 | -87.72156 | 16747 ft | 367 kts | 190° |
| 2026-04-25 09:03 | 41.40646 | -87.72536 | 17437 ft | 374 kts | 185° |
| 2026-04-25 09:03 | 41.38044 | -87.72663 | 18177 ft | 376 kts | 182° |
| 2026-04-25 09:03 | 41.35431 | -87.72663 | 18877 ft | 378 kts | 181° |
| 2026-04-25 09:03 | 41.32807 | -87.72626 | 19642 ft | 379 kts | 181° |
| 2026-04-25 09:04 | 41.30168 | -87.72597 | 20393 ft | 379 kts | 182° |
| 2026-04-25 09:04 | 41.27558 | -87.72583 | 21116 ft | 379 kts | 182° |
| 2026-04-25 09:04 | 41.24908 | -87.72581 | 21784 ft | 381 kts | 182° |
| 2026-04-25 09:04 | 41.22256 | -87.72588 | 22451 ft | 382 kts | 183° |
| 2026-04-25 09:05 | 41.19590 | -87.72564 | 23085 ft | 383 kts | 181° |
| 2026-04-25 09:05 | 41.16967 | -87.72345 | 23805 ft | 382 kts | 179° |
| 2026-04-25 09:05 | 41.14315 | -87.71989 | 24419 ft | 384 kts | 177° |
| 2026-04-25 09:05 | 41.11663 | -87.71581 | 25064 ft | 384 kts | 177° |
| 2026-04-25 09:06 | 41.08992 | -87.71172 | 25540 ft | 386 kts | 178° |
| 2026-04-25 09:06 | 41.06364 | -87.70780 | 26220 ft | 383 kts | 178° |
| 2026-04-25 09:06 | 41.03692 | -87.70396 | 26616 ft | 388 kts | 178° |
| 2026-04-25 09:06 | 41.01000 | -87.70017 | 27195 ft | 388 kts | 179° |
| 2026-04-25 09:07 | 40.98293 | -87.69644 | 27643 ft | 390 kts | 179° |
| 2026-04-25 09:07 | 40.95618 | -87.69280 | 28122 ft | 392 kts | 179° |
| 2026-04-25 09:07 | 40.92883 | -87.68913 | 28565 ft | 395 kts | 179° |
| 2026-04-25 09:07 | 40.90168 | -87.68549 | 29040 ft | 396 kts | 179° |
| 2026-04-25 09:08 | 40.87442 | -87.68179 | 29668 ft | 394 kts | 179° |
| 2026-04-25 09:08 | 40.84724 | -87.67808 | 30354 ft | 389 kts | 180° |
| 2026-04-25 09:08 | 40.82045 | -87.67442 | 30995 ft | 383 kts | 179° |
| 2026-04-25 09:08 | 40.79446 | -87.67085 | 31652 ft | 376 kts | 180° |
| 2026-04-25 09:09 | 40.76862 | -87.66732 | 32267 ft | 370 kts | 181° |
| 2026-04-25 09:09 | 40.74343 | -87.66393 | 32801 ft | 366 kts | 181° |
| 2026-04-25 09:09 | 40.71807 | -87.66057 | 33261 ft | 364 kts | 181° |
| 2026-04-25 09:09 | 40.69296 | -87.65726 | 33674 ft | 362 kts | 182° |
| 2026-04-25 09:10 | 40.66790 | -87.65395 | 34122 ft | 360 kts | 182° |
| 2026-04-25 09:10 | 40.64304 | -87.65065 | 34504 ft | 358 kts | 182° |
| 2026-04-25 09:10 | 40.61794 | -87.64734 | 34821 ft | 358 kts | 182° |
| 2026-04-25 09:10 | 40.59296 | -87.64410 | 34976 ft | 362 kts | 182° |
| 2026-04-25 09:11 | 40.54217 | -87.63760 | 35385 ft | 367 kts | 182° |
| 2026-04-25 09:11 | 40.51674 | -87.63422 | 35690 ft | 366 kts | 181° |
| 2026-04-25 09:11 | 40.49150 | -87.63079 | 35953 ft | 367 kts | 182° |
| 2026-04-25 09:12 | 40.46628 | -87.62739 | 36267 ft | 366 kts | 182° |
| 2026-04-25 09:12 | 40.44089 | -87.62398 | 36545 ft | 367 kts | 182° |
| 2026-04-25 09:12 | 40.41513 | -87.62054 | 36781 ft | 369 kts | 182° |
| 2026-04-25 09:12 | 40.38971 | -87.61719 | 36942 ft | 372 kts | 182° |
| 2026-04-25 09:13 | 40.33783 | -87.60954 | 36937 ft | 376 kts | 178° |
| 2026-04-25 09:13 | 40.28718 | -87.58961 | 36939 ft | 383 kts | 166° |
| 2026-04-25 09:14 | 40.23875 | -87.55977 | 36946 ft | 387 kts | 162° |
| 2026-04-25 09:14 | 40.19038 | -87.52821 | 36941 ft | 392 kts | 162° |
| 2026-04-25 09:15 | 40.14156 | -87.49676 | 36944 ft | 388 kts | 163° |
| 2026-04-25 09:15 | 40.09342 | -87.46612 | 36928 ft | 387 kts | 163° |
| 2026-04-25 09:16 | 40.04453 | -87.43527 | 36912 ft | 390 kts | 163° |
| 2026-04-25 09:16 | 39.99577 | -87.40452 | 36896 ft | 388 kts | 163° |
| 2026-04-25 09:17 | 39.92324 | -87.35674 | 36903 ft | 394 kts | 161° |
| 2026-04-25 09:18 | 39.87479 | -87.32375 | 36902 ft | 391 kts | 162° |
| 2026-04-25 09:18 | 39.82643 | -87.29108 | 36905 ft | 392 kts | 162° |
| 2026-04-25 09:19 | 39.77806 | -87.25864 | 36899 ft | 392 kts | 162° |
| 2026-04-25 09:19 | 39.72979 | -87.22629 | 36910 ft | 389 kts | 162° |
| 2026-04-25 09:20 | 39.68144 | -87.19409 | 36910 ft | 392 kts | 162° |
| 2026-04-25 09:20 | 39.63310 | -87.16190 | 36916 ft | 390 kts | 162° |
| 2026-04-25 09:21 | 39.58493 | -87.12969 | 36918 ft | 390 kts | 162° |
| 2026-04-25 09:21 | 39.53683 | -87.09770 | 36926 ft | 390 kts | 162° |
| 2026-04-25 09:22 | 39.48837 | -87.06564 | 36928 ft | 392 kts | 162° |
| 2026-04-25 09:22 | 39.43960 | -87.03340 | 36928 ft | 391 kts | 162° |
| 2026-04-25 09:23 | 39.39122 | -87.00135 | 36928 ft | 392 kts | 162° |
| 2026-04-25 09:23 | 39.34287 | -86.96935 | 36911 ft | 391 kts | 162° |
| 2026-04-25 09:24 | 39.29443 | -86.93739 | 36905 ft | 394 kts | 162° |
| 2026-04-25 09:24 | 39.24549 | -86.90514 | 36904 ft | 393 kts | 162° |
| 2026-04-25 09:25 | 39.19705 | -86.87324 | 36912 ft | 390 kts | 162° |
| 2026-04-25 09:25 | 39.14861 | -86.84137 | 36906 ft | 394 kts | 161° |
| 2026-04-25 09:26 | 39.09986 | -86.80827 | 36908 ft | 394 kts | 161° |
| 2026-04-25 09:26 | 39.05182 | -86.77536 | 36914 ft | 392 kts | 161° |
| 2026-04-25 09:27 | 39.00361 | -86.74258 | 36919 ft | 394 kts | 161° |
| 2026-04-25 09:27 | 38.95508 | -86.70970 | 36908 ft | 394 kts | 161° |
| 2026-04-25 09:28 | 38.90662 | -86.67690 | 37144 ft | 396 kts | 161° |
| 2026-04-25 09:28 | 38.88222 | -86.66044 | 36926 ft | 397 kts | 161° |
| 2026-04-25 09:28 | 38.85767 | -86.64385 | 36902 ft | 392 kts | 161° |
| 2026-04-25 09:29 | 38.80999 | -86.61163 | 36918 ft | 388 kts | 161° |
| 2026-04-25 09:29 | 38.76182 | -86.57935 | 36919 ft | 393 kts | 161° |
| 2026-04-25 09:30 | 38.71341 | -86.54691 | 36900 ft | 393 kts | 161° |
| 2026-04-25 09:30 | 38.66532 | -86.51457 | 36917 ft | 389 kts | 161° |
| 2026-04-25 09:31 | 38.61705 | -86.48225 | 36922 ft | 393 kts | 161° |
| 2026-04-25 09:31 | 38.56856 | -86.44987 | 36917 ft | 392 kts | 161° |
| 2026-04-25 09:32 | 38.52002 | -86.41743 | 36920 ft | 392 kts | 160° |
| 2026-04-25 09:32 | 38.47171 | -86.38527 | 36910 ft | 392 kts | 161° |
| 2026-04-25 09:33 | 38.42352 | -86.35317 | 36906 ft | 393 kts | 161° |
| 2026-04-25 09:33 | 38.37477 | -86.32076 | 36885 ft | 390 kts | 161° |
| 2026-04-25 09:34 | 38.32633 | -86.28863 | 36886 ft | 392 kts | 161° |
| 2026-04-25 09:34 | 38.27803 | -86.25665 | 36882 ft | 391 kts | 161° |
| 2026-04-25 09:35 | 38.22980 | -86.22463 | 36884 ft | 390 kts | 161° |
| 2026-04-25 09:35 | 38.18150 | -86.19276 | 36882 ft | 392 kts | 161° |
| 2026-04-25 09:36 | 38.13294 | -86.16076 | 36892 ft | 392 kts | 161° |
| 2026-04-25 09:36 | 38.08454 | -86.12891 | 36893 ft | 393 kts | 161° |
| 2026-04-25 09:37 | 38.03575 | -86.09691 | 36883 ft | 393 kts | 161° |
| 2026-04-25 09:37 | 37.98719 | -86.06509 | 36896 ft | 393 kts | 161° |
| 2026-04-25 09:38 | 37.93899 | -86.03342 | 36893 ft | 392 kts | 161° |
| 2026-04-25 09:38 | 37.89015 | -86.00141 | 36887 ft | 393 kts | 161° |
| 2026-04-25 09:39 | 37.84147 | -85.96956 | 36887 ft | 395 kts | 161° |
| 2026-04-25 09:39 | 37.79296 | -85.93786 | 36893 ft | 391 kts | 161° |
| 2026-04-25 09:40 | 37.71964 | -85.89022 | 36902 ft | 399 kts | 161° |
| 2026-04-25 09:40 | 37.67068 | -85.85842 | 36896 ft | 395 kts | 161° |
| 2026-04-25 09:41 | 37.62189 | -85.82664 | 36901 ft | 396 kts | 160° |
| 2026-04-25 09:41 | 37.57307 | -85.79497 | 36897 ft | 395 kts | 161° |
| 2026-04-25 09:42 | 37.52433 | -85.76341 | 36890 ft | 395 kts | 161° |
| 2026-04-25 09:42 | 37.47520 | -85.73167 | 36891 ft | 399 kts | 161° |
| 2026-04-25 09:43 | 37.42597 | -85.69990 | 36886 ft | 397 kts | 161° |
| 2026-04-25 09:43 | 37.37676 | -85.66816 | 36889 ft | 398 kts | 161° |
| 2026-04-25 09:44 | 37.32726 | -85.63632 | 36883 ft | 399 kts | 161° |
| 2026-04-25 09:44 | 37.27781 | -85.60458 | 36881 ft | 399 kts | 161° |
| 2026-04-25 09:45 | 37.22863 | -85.57304 | 36876 ft | 398 kts | 160° |
| 2026-04-25 09:45 | 37.17948 | -85.54153 | 36903 ft | 399 kts | 160° |
| 2026-04-25 09:46 | 37.12975 | -85.50975 | 36874 ft | 400 kts | 161° |
| 2026-04-25 09:46 | 37.08010 | -85.47824 | 36872 ft | 399 kts | 162° |
| 2026-04-25 09:47 | 37.03002 | -85.44833 | 36845 ft | 399 kts | 159° |
| 2026-04-25 09:47 | 36.98099 | -85.41489 | 36881 ft | 401 kts | 162° |
| 2026-04-25 09:48 | 36.93028 | -85.38420 | 36892 ft | 401 kts | 165° |
| 2026-04-25 09:48 | 36.87959 | -85.35671 | 36875 ft | 398 kts | 162° |
| 2026-04-25 09:49 | 36.83005 | -85.32396 | 36872 ft | 402 kts | 158° |
| 2026-04-25 09:49 | 36.78106 | -85.29001 | 36871 ft | 405 kts | 159° |
| 2026-04-25 09:50 | 36.73135 | -85.25716 | 36876 ft | 403 kts | 160° |
| 2026-04-25 09:50 | 36.68166 | -85.22541 | 36885 ft | 402 kts | 161° |
| 2026-04-25 09:51 | 36.63156 | -85.19419 | 36880 ft | 402 kts | 162° |
| 2026-04-25 09:51 | 36.57952 | -85.17132 | 36894 ft | 391 kts | 175° |
| 2026-04-25 09:52 | 36.52639 | -85.15764 | 36892 ft | 388 kts | 178° |
| 2026-04-25 09:52 | 36.47367 | -85.14520 | 36897 ft | 387 kts | 177° |
| 2026-04-25 09:53 | 36.42066 | -85.13210 | 36903 ft | 390 kts | 176° |
| 2026-04-25 09:53 | 36.36749 | -85.11848 | 36903 ft | 391 kts | 176° |
| 2026-04-25 09:54 | 36.31427 | -85.10477 | 36903 ft | 389 kts | 175° |
| 2026-04-25 09:54 | 36.26100 | -85.09106 | 36898 ft | 391 kts | 176° |
| 2026-04-25 09:55 | 36.20779 | -85.07736 | 36897 ft | 391 kts | 176° |
| 2026-04-25 09:55 | 36.15427 | -85.06365 | 36925 ft | 392 kts | 176° |
| 2026-04-25 09:56 | 36.10096 | -85.04996 | 36929 ft | 392 kts | 176° |
| 2026-04-25 09:56 | 36.04737 | -85.03622 | 36942 ft | 394 kts | 175° |
| 2026-04-25 09:57 | 35.99383 | -85.02246 | 36937 ft | 393 kts | 176° |
| 2026-04-25 09:57 | 35.94018 | -85.00877 | 36941 ft | 393 kts | 176° |
| 2026-04-25 09:58 | 35.88641 | -84.99513 | 36937 ft | 397 kts | 175° |
| 2026-04-25 09:58 | 35.83202 | -84.98128 | 36926 ft | 394 kts | 175° |
| 2026-04-25 09:59 | 35.77841 | -84.96761 | 36920 ft | 393 kts | 175° |
| 2026-04-25 09:59 | 35.72442 | -84.95386 | 36906 ft | 394 kts | 175° |
| 2026-04-25 10:00 | 35.67060 | -84.94022 | 36906 ft | 396 kts | 175° |
| 2026-04-25 10:00 | 35.61638 | -84.92648 | 36903 ft | 396 kts | 175° |
| 2026-04-25 10:01 | 35.56266 | -84.91290 | 36906 ft | 394 kts | 175° |
| 2026-04-25 10:01 | 35.50881 | -84.89922 | 36921 ft | 398 kts | 175° |
| 2026-04-25 10:02 | 35.45470 | -84.88552 | 36913 ft | 396 kts | 175° |
| 2026-04-25 10:02 | 35.40062 | -84.87183 | 36906 ft | 397 kts | 175° |
| 2026-04-25 10:03 | 35.34682 | -84.85828 | 36896 ft | 394 kts | 175° |
| 2026-04-25 10:03 | 35.29276 | -84.84467 | 36888 ft | 397 kts | 175° |
| 2026-04-25 10:04 | 35.23852 | -84.83107 | 36889 ft | 400 kts | 175° |
| 2026-04-25 10:04 | 35.18439 | -84.81730 | 36888 ft | 396 kts | 175° |
| 2026-04-25 10:05 | 35.13025 | -84.80370 | 36897 ft | 397 kts | 175° |
| 2026-04-25 10:05 | 35.07552 | -84.79012 | 36891 ft | 404 kts | 175° |
| 2026-04-25 10:06 | 35.02053 | -84.77638 | 36913 ft | 400 kts | 174° |
| 2026-04-25 10:06 | 34.96586 | -84.76268 | 36893 ft | 400 kts | 175° |
| 2026-04-25 10:07 | 34.91138 | -84.74903 | 36906 ft | 401 kts | 174° |
| 2026-04-25 10:07 | 34.85682 | -84.73548 | 36888 ft | 402 kts | 174° |
| 2026-04-25 10:08 | 34.80200 | -84.72187 | 36910 ft | 402 kts | 174° |
| 2026-04-25 10:08 | 34.74729 | -84.70828 | 36901 ft | 401 kts | 174° |
| 2026-04-25 10:09 | 34.69241 | -84.69470 | 36874 ft | 403 kts | 174° |
| 2026-04-25 10:09 | 34.63724 | -84.68098 | 36908 ft | 404 kts | 174° |
| 2026-04-25 10:10 | 34.58247 | -84.66740 | 36911 ft | 403 kts | 174° |
| 2026-04-25 10:10 | 34.52753 | -84.65332 | 36897 ft | 402 kts | 173° |
| 2026-04-25 10:11 | 34.47243 | -84.63882 | 36882 ft | 404 kts | 173° |
| 2026-04-25 10:11 | 34.41759 | -84.62439 | 36899 ft | 403 kts | 173° |
| 2026-04-25 10:12 | 34.36249 | -84.61001 | 36912 ft | 406 kts | 173° |
| 2026-04-25 10:13 | 34.27976 | -84.58839 | 36931 ft | 404 kts | 172° |
| 2026-04-25 10:13 | 34.22471 | -84.57397 | 36941 ft | 405 kts | 173° |
| 2026-04-25 10:14 | 34.16964 | -84.55975 | 36911 ft | 405 kts | 173° |
| 2026-04-25 10:14 | 34.11450 | -84.54551 | 36933 ft | 403 kts | 173° |
| 2026-04-25 10:15 | 34.05959 | -84.53127 | 36924 ft | 407 kts | 173° |
| 2026-04-25 10:15 | 34.00421 | -84.51728 | 36909 ft | 402 kts | 173° |
| 2026-04-25 10:16 | 33.94900 | -84.50500 | 36894 ft | 401 kts | 174° |
| 2026-04-25 10:16 | 33.89375 | -84.49320 | 36892 ft | 405 kts | 174° |
| 2026-04-25 10:17 | 33.83852 | -84.48109 | 36906 ft | 405 kts | 174° |
| 2026-04-25 10:17 | 33.78307 | -84.46897 | 36907 ft | 406 kts | 174° |
| 2026-04-25 10:18 | 33.72741 | -84.45672 | 36891 ft | 403 kts | 174° |
| 2026-04-25 10:18 | 33.67206 | -84.44460 | 36914 ft | 405 kts | 173° |
| 2026-04-25 10:19 | 33.61739 | -84.42745 | 36904 ft | 408 kts | 163° |
| 2026-04-25 10:19 | 33.56520 | -84.39923 | 36908 ft | 415 kts | 157° |
| 2026-04-25 10:20 | 33.51354 | -84.36749 | 36919 ft | 413 kts | 155° |
| 2026-04-25 10:20 | 33.46265 | -84.33627 | 36940 ft | 413 kts | 156° |
| 2026-04-25 10:21 | 33.41144 | -84.30539 | 36946 ft | 411 kts | 157° |
| 2026-04-25 10:21 | 33.36024 | -84.27491 | 36932 ft | 412 kts | 157° |
| 2026-04-25 10:22 | 33.30863 | -84.24420 | 36945 ft | 414 kts | 156° |
| 2026-04-25 10:22 | 33.25717 | -84.21354 | 36936 ft | 415 kts | 156° |
| 2026-04-25 10:23 | 33.20522 | -84.18279 | 36932 ft | 420 kts | 157° |
| 2026-04-25 10:23 | 33.15281 | -84.15184 | 36921 ft | 417 kts | 157° |
| 2026-04-25 10:24 | 33.10109 | -84.12123 | 36922 ft | 417 kts | 156° |
| 2026-04-25 10:24 | 33.04874 | -84.09026 | 36922 ft | 421 kts | 156° |
| 2026-04-25 10:25 | 32.99629 | -84.05935 | 36917 ft | 419 kts | 156° |
| 2026-04-25 10:25 | 32.94401 | -84.02859 | 36905 ft | 418 kts | 156° |
| 2026-04-25 10:26 | 32.89198 | -83.99797 | 36929 ft | 418 kts | 156° |
| 2026-04-25 10:26 | 32.83992 | -83.96736 | 36912 ft | 418 kts | 156° |
| 2026-04-25 10:27 | 32.78775 | -83.93678 | 36918 ft | 417 kts | 156° |
| 2026-04-25 10:27 | 32.73563 | -83.90625 | 36922 ft | 418 kts | 156° |
| 2026-04-25 10:28 | 32.68324 | -83.87563 | 36918 ft | 419 kts | 155° |
| 2026-04-25 10:28 | 32.63124 | -83.84526 | 36927 ft | 418 kts | 155° |
| 2026-04-25 10:29 | 32.57892 | -83.81472 | 36925 ft | 417 kts | 155° |
| 2026-04-25 10:29 | 32.52706 | -83.78451 | 36929 ft | 418 kts | 155° |
| 2026-04-25 10:30 | 32.47474 | -83.75404 | 36935 ft | 417 kts | 155° |
| 2026-04-25 10:30 | 32.42279 | -83.72385 | 36930 ft | 417 kts | 155° |
| 2026-04-25 10:31 | 32.37071 | -83.69364 | 36936 ft | 418 kts | 155° |
| 2026-04-25 10:31 | 32.31841 | -83.66335 | 36924 ft | 418 kts | 155° |
| 2026-04-25 10:32 | 32.26649 | -83.63323 | 36924 ft | 416 kts | 155° |
| 2026-04-25 10:32 | 32.21447 | -83.60313 | 36930 ft | 417 kts | 155° |
| 2026-04-25 10:33 | 32.16215 | -83.57296 | 36926 ft | 417 kts | 155° |
| 2026-04-25 10:33 | 32.11005 | -83.54298 | 36929 ft | 417 kts | 155° |
| 2026-04-25 10:34 | 32.05793 | -83.51293 | 36930 ft | 417 kts | 155° |
| 2026-04-25 10:34 | 32.00576 | -83.48291 | 36926 ft | 416 kts | 155° |
| 2026-04-25 10:35 | 31.95399 | -83.45316 | 36922 ft | 416 kts | 155° |
| 2026-04-25 10:35 | 31.90179 | -83.42318 | 36913 ft | 415 kts | 155° |
| 2026-04-25 10:36 | 31.85008 | -83.39355 | 36912 ft | 415 kts | 155° |
| 2026-04-25 10:36 | 31.79785 | -83.36365 | 36925 ft | 418 kts | 154° |
| 2026-04-25 10:37 | 31.74576 | -83.33390 | 36939 ft | 415 kts | 155° |
| 2026-04-25 10:37 | 31.69361 | -83.30411 | 36948 ft | 414 kts | 155° |
| 2026-04-25 10:38 | 31.64171 | -83.27454 | 36942 ft | 414 kts | 155° |
| 2026-04-25 10:38 | 31.58992 | -83.24522 | 36943 ft | 415 kts | 155° |
| 2026-04-25 10:39 | 31.53791 | -83.21614 | 36936 ft | 414 kts | 156° |
| 2026-04-25 10:39 | 31.48565 | -83.18697 | 36943 ft | 415 kts | 155° |
| 2026-04-25 10:40 | 31.43383 | -83.15798 | 36931 ft | 414 kts | 155° |
| 2026-04-25 10:40 | 31.38180 | -83.12891 | 36941 ft | 415 kts | 155° |
| 2026-04-25 10:41 | 31.32968 | -83.09985 | 36938 ft | 413 kts | 155° |
| 2026-04-25 10:41 | 31.27780 | -83.07097 | 36929 ft | 413 kts | 155° |
| 2026-04-25 10:41 | 31.25199 | -83.05661 | 36693 ft | 411 kts | 155° |
| 2026-04-25 10:42 | 31.22625 | -83.04230 | 36209 ft | 408 kts | 155° |
| 2026-04-25 10:42 | 31.20066 | -83.02808 | 35691 ft | 405 kts | 154° |
| 2026-04-25 10:42 | 31.17516 | -83.01391 | 35105 ft | 405 kts | 154° |
| 2026-04-25 10:42 | 31.14978 | -82.99982 | 34510 ft | 405 kts | 154° |
| 2026-04-25 10:43 | 31.12438 | -82.98571 | 33902 ft | 405 kts | 154° |
| 2026-04-25 10:43 | 31.09907 | -82.97166 | 33334 ft | 405 kts | 154° |
| 2026-04-25 10:43 | 31.07368 | -82.95757 | 32747 ft | 406 kts | 154° |
| 2026-04-25 10:43 | 31.04818 | -82.94344 | 32097 ft | 408 kts | 154° |
| 2026-04-25 10:44 | 31.02247 | -82.92922 | 31465 ft | 410 kts | 153° |
| 2026-04-25 10:44 | 30.99683 | -82.91505 | 30954 ft | 408 kts | 153° |
| 2026-04-25 10:44 | 30.97117 | -82.90087 | 30475 ft | 409 kts | 153° |
| 2026-04-25 10:44 | 30.94528 | -82.88655 | 29958 ft | 411 kts | 153° |
| 2026-04-25 10:45 | 30.91953 | -82.87228 | 29446 ft | 410 kts | 152° |
| 2026-04-25 10:45 | 30.89452 | -82.85688 | 29008 ft | 405 kts | 147° |
| 2026-04-25 10:45 | 30.87137 | -82.83933 | 28937 ft | 392 kts | 143° |
| 2026-04-25 10:46 | 30.82821 | -82.80121 | 28934 ft | 392 kts | 140° |
| 2026-04-25 10:46 | 30.78446 | -82.76075 | 28930 ft | 409 kts | 140° |
| 2026-04-25 10:47 | 30.73991 | -82.72002 | 28925 ft | 406 kts | 140° |
| 2026-04-25 10:47 | 30.69557 | -82.67992 | 28926 ft | 404 kts | 140° |
| 2026-04-25 10:48 | 30.65121 | -82.63995 | 28928 ft | 404 kts | 140° |
| 2026-04-25 10:48 | 30.60671 | -82.59991 | 28927 ft | 405 kts | 140° |
| 2026-04-25 10:49 | 30.56217 | -82.55991 | 28925 ft | 406 kts | 140° |
| 2026-04-25 10:49 | 30.51761 | -82.51994 | 28930 ft | 404 kts | 140° |
| 2026-04-25 10:50 | 30.47303 | -82.48002 | 28927 ft | 407 kts | 140° |
| 2026-04-25 10:50 | 30.42817 | -82.43989 | 28928 ft | 405 kts | 140° |
| 2026-04-25 10:51 | 30.38364 | -82.40011 | 28923 ft | 405 kts | 140° |
| 2026-04-25 10:51 | 30.33903 | -82.36031 | 28937 ft | 405 kts | 140° |
| 2026-04-25 10:52 | 30.29431 | -82.32045 | 28937 ft | 405 kts | 141° |
| 2026-04-25 10:52 | 30.24962 | -82.28062 | 28928 ft | 407 kts | 141° |
| 2026-04-25 10:53 | 30.20314 | -82.24312 | 28923 ft | 406 kts | 152° |
| 2026-04-25 10:53 | 30.17699 | -82.23122 | 28933 ft | 407 kts | 165° |
| 2026-04-25 10:53 | 30.14946 | -82.22395 | 28932 ft | 407 kts | 169° |
| 2026-04-25 10:54 | 30.09315 | -82.21330 | 28925 ft | 407 kts | 172° |
| 2026-04-25 10:54 | 30.03718 | -82.20343 | 28940 ft | 409 kts | 171° |
| 2026-04-25 10:55 | 29.98117 | -82.19303 | 28949 ft | 407 kts | 171° |
| 2026-04-25 10:55 | 29.92525 | -82.18226 | 28948 ft | 408 kts | 171° |
| 2026-04-25 10:56 | 29.86927 | -82.17123 | 28947 ft | 407 kts | 171° |
| 2026-04-25 10:56 | 29.81344 | -82.16009 | 28954 ft | 407 kts | 171° |
| 2026-04-25 10:56 | 29.78539 | -82.15449 | 28677 ft | 406 kts | 171° |
| 2026-04-25 10:57 | 29.75782 | -82.14899 | 28256 ft | 402 kts | 171° |
| 2026-04-25 10:57 | 29.73027 | -82.14350 | 27786 ft | 399 kts | 171° |
| 2026-04-25 10:57 | 29.70307 | -82.13809 | 27353 ft | 396 kts | 171° |
| 2026-04-25 10:57 | 29.67613 | -82.13273 | 26847 ft | 394 kts | 172° |
| 2026-04-25 10:58 | 29.64892 | -82.12732 | 26420 ft | 390 kts | 172° |
| 2026-04-25 10:58 | 29.62240 | -82.12206 | 25968 ft | 387 kts | 172° |
| 2026-04-25 10:58 | 29.59605 | -82.11684 | 25525 ft | 384 kts | 172° |
| 2026-04-25 10:58 | 29.56950 | -82.11157 | 25079 ft | 381 kts | 172° |
| 2026-04-25 10:59 | 29.54367 | -82.10644 | 24597 ft | 380 kts | 172° |
| 2026-04-25 10:59 | 29.51787 | -82.10133 | 24233 ft | 374 kts | 172° |
| 2026-04-25 10:59 | 29.49197 | -82.09620 | 23703 ft | 375 kts | 172° |
| 2026-04-25 10:59 | 29.46643 | -82.09114 | 23327 ft | 370 kts | 172° |
| 2026-04-25 11:00 | 29.44102 | -82.08612 | 22856 ft | 369 kts | 172° |
| 2026-04-25 11:00 | 29.41575 | -82.08112 | 22434 ft | 366 kts | 172° |
| 2026-04-25 11:00 | 29.39067 | -82.07616 | 21996 ft | 364 kts | 172° |
| 2026-04-25 11:00 | 29.36592 | -82.07128 | 21623 ft | 360 kts | 172° |
| 2026-04-25 11:01 | 29.34135 | -82.06641 | 21127 ft | 360 kts | 172° |
| 2026-04-25 11:01 | 29.31674 | -82.06036 | 20711 ft | 358 kts | 167° |
| 2026-04-25 11:01 | 29.29330 | -82.05111 | 20310 ft | 357 kts | 158° |
| 2026-04-25 11:01 | 29.27106 | -82.03886 | 19886 ft | 356 kts | 153° |
| 2026-04-25 11:02 | 29.24929 | -82.02524 | 19503 ft | 353 kts | 152° |
| 2026-04-25 11:02 | 29.22801 | -82.01135 | 19023 ft | 352 kts | 151° |
| 2026-04-25 11:02 | 29.20682 | -81.99749 | 18639 ft | 349 kts | 151° |
| 2026-04-25 11:02 | 29.18590 | -81.98389 | 18181 ft | 348 kts | 152° |
| 2026-04-25 11:03 | 29.16490 | -81.97040 | 17813 ft | 345 kts | 152° |
| 2026-04-25 11:03 | 29.14380 | -81.95700 | 17391 ft | 343 kts | 152° |
| 2026-04-25 11:03 | 29.12311 | -81.94396 | 17020 ft | 341 kts | 152° |
| 2026-04-25 11:03 | 29.10223 | -81.93085 | 16590 ft | 339 kts | 151° |
| 2026-04-25 11:04 | 29.08187 | -81.91773 | 16172 ft | 338 kts | 149° |
| 2026-04-25 11:04 | 29.06254 | -81.90276 | 15801 ft | 335 kts | 142° |
| 2026-04-25 11:04 | 29.04472 | -81.88567 | 15317 ft | 333 kts | 137° |
| 2026-04-25 11:04 | 29.03358 | -81.87381 | 15008 ft | 331 kts | 136° |
| 2026-04-25 11:05 | 29.01157 | -81.84943 | 14469 ft | 328 kts | 135° |
| 2026-04-25 11:05 | 28.99524 | -81.83134 | 14011 ft | 327 kts | 135° |
| 2026-04-25 11:05 | 28.97924 | -81.81302 | 13643 ft | 326 kts | 131° |
| 2026-04-25 11:05 | 28.96476 | -81.79344 | 13290 ft | 322 kts | 127° |
| 2026-04-25 11:06 | 28.95125 | -81.77316 | 12904 ft | 320 kts | 125° |
| 2026-04-25 11:06 | 28.93801 | -81.75269 | 12545 ft | 317 kts | 125° |
| 2026-04-25 11:06 | 28.92494 | -81.73264 | 12212 ft | 313 kts | 126° |
| 2026-04-25 11:06 | 28.91187 | -81.71292 | 11797 ft | 313 kts | 126° |
| 2026-04-25 11:07 | 28.89872 | -81.69331 | 11509 ft | 307 kts | 126° |
| 2026-04-25 11:07 | 28.88588 | -81.67430 | 11292 ft | 300 kts | 126° |
| 2026-04-25 11:07 | 28.87321 | -81.65556 | 10957 ft | 297 kts | 127° |
| 2026-04-25 11:07 | 28.86048 | -81.63670 | 10585 ft | 296 kts | 127° |
| 2026-04-25 11:08 | 28.84799 | -81.61820 | 10249 ft | 294 kts | 127° |
| 2026-04-25 11:08 | 28.83552 | -81.59976 | 9880 ft | 293 kts | 127° |
| 2026-04-25 11:08 | 28.82318 | -81.58153 | 9582 ft | 290 kts | 127° |
| 2026-04-25 11:08 | 28.81092 | -81.56342 | 9270 ft | 288 kts | 127° |
| 2026-04-25 11:09 | 28.79874 | -81.54543 | 8955 ft | 285 kts | 127° |
| 2026-04-25 11:09 | 28.78695 | -81.52756 | 8795 ft | 275 kts | 124° |
| 2026-04-25 11:09 | 28.77644 | -81.50955 | 8538 ft | 270 kts | 121° |
| 2026-04-25 11:09 | 28.76655 | -81.49147 | 8189 ft | 270 kts | 121° |
| 2026-04-25 11:10 | 28.75665 | -81.47336 | 7903 ft | 267 kts | 121° |
| 2026-04-25 11:10 | 28.75011 | -81.46156 | 7687 ft | 266 kts | 121° |
| 2026-04-25 11:10 | 28.73692 | -81.43808 | 7421 ft | 257 kts | 121° |
| 2026-04-25 11:10 | 28.72848 | -81.42014 | 6944 ft | 262 kts | 109° |
| 2026-04-25 11:11 | 28.72294 | -81.39994 | 6182 ft | 273 kts | 104° |
| 2026-04-25 11:11 | 28.71796 | -81.37920 | 5428 ft | 279 kts | 105° |
| 2026-04-25 11:11 | 28.71200 | -81.35826 | 4826 ft | 277 kts | 111° |
| 2026-04-25 11:11 | 28.70207 | -81.33997 | 4409 ft | 264 kts | 137° |
| 2026-04-25 11:12 | 28.68691 | -81.33054 | 4052 ft | 236 kts | 167° |
| 2026-04-25 11:12 | 28.67161 | -81.32895 | 3701 ft | 211 kts | 179° |
| 2026-04-25 11:12 | 28.65744 | -81.32912 | 3323 ft | 195 kts | 180° |
| 2026-04-25 11:12 | 28.64413 | -81.32910 | 3018 ft | 183 kts | 179° |
| 2026-04-25 11:13 | 28.63175 | -81.32893 | 2960 ft | 175 kts | 179° |
| 2026-04-25 11:13 | 28.61933 | -81.32877 | 2994 ft | 179 kts | 179° |
| 2026-04-25 11:13 | 28.60724 | -81.32864 | 2974 ft | 169 kts | 179° |
| 2026-04-25 11:13 | 28.59561 | -81.32851 | 2955 ft | 168 kts | 179° |
| 2026-04-25 11:14 | 28.58385 | -81.32838 | 2761 ft | 170 kts | 179° |
| 2026-04-25 11:14 | 28.57207 | -81.32825 | 2501 ft | 164 kts | 179° |
| 2026-04-25 11:14 | 28.56072 | -81.32814 | 2292 ft | 163 kts | 179° |
| 2026-04-25 11:14 | 28.54922 | -81.32802 | 2064 ft | 162 kts | 179° |
| 2026-04-25 11:15 | 28.53852 | -81.32790 | 1880 ft | 147 kts | 179° |
| 2026-04-25 11:15 | 28.52848 | -81.32779 | 1636 ft | 142 kts | 179° |
| 2026-04-25 11:15 | 28.51853 | -81.32769 | 1473 ft | 143 kts | 179° |
| 2026-04-25 11:15 | 28.50845 | -81.32759 | 1275 ft | 145 kts | 179° |
| 2026-04-25 11:16 | 28.48825 | -81.32716 | 887 ft | 146 kts | 179° |
| 2026-04-25 11:16 | 28.47817 | -81.32729 | 688 ft | 145 kts | 180° |
| 2026-04-25 11:16 | 28.46815 | -81.32722 | 498 ft | 144 kts | 179° |
| 2026-04-25 11:17 | 28.45812 | -81.32706 | 317 ft | 142 kts | 180° |
| 2026-04-25 11:17 | 28.44817 | -81.32698 | 136 ft | 141 kts | 179° |
| 2026-04-25 11:17 | 28.43901 | -81.32684 | 91 ft | 112 kts | 179° |
| 2026-04-25 11:17 | 28.43304 | -81.32681 | 95 ft | 62 kts | 180° |
| 2026-04-25 11:18 | 28.42907 | -81.32676 | 95 ft | 51 kts | 178° |
| 2026-04-25 11:18 | 28.42660 | -81.32640 | 95 ft | 24 kts | 150° |
| 2026-04-25 11:18 | 28.42567 | -81.32497 | 95 ft | 22 kts | 122° |
| 2026-04-25 11:18 | 28.42484 | -81.32339 | 95 ft | 22 kts | 120° |
| 2026-04-25 11:19 | 28.42406 | -81.32190 | 92 ft | 20 kts | 120° |
| 2026-04-25 11:19 | 28.42351 | -81.32089 | 91 ft | 10 kts | 124° |
| 2026-04-25 11:19 | 28.42320 | -81.32021 | 91 ft | 7 kts | 81° |
| 2026-04-25 11:19 | 28.42377 | -81.31986 | 91 ft | 10 kts | 1° |
| 2026-04-25 11:20 | 28.42463 | -81.31988 | 91 ft | 14 kts | 359° |
| 2026-04-25 11:20 | 28.42560 | -81.31990 | 91 ft | 13 kts | 358° |
| 2026-04-25 11:20 | 28.42654 | -81.31990 | 91 ft | 14 kts | 1° |
| 2026-04-25 11:20 | 28.42769 | -81.31992 | 91 ft | 17 kts | 359° |
| 2026-04-25 11:21 | 28.42905 | -81.31994 | 91 ft | 19 kts | 1° |
| 2026-04-25 11:21 | 28.43041 | -81.31992 | 91 ft | 19 kts | 1° |
| 2026-04-25 11:21 | 28.43177 | -81.31997 | 91 ft | 19 kts | 359° |
| 2026-04-25 11:21 | 28.43313 | -81.31997 | 91 ft | 19 kts | 359° |
| 2026-04-25 11:22 | 28.43451 | -81.31997 | 91 ft | 19 kts | 359° |
| 2026-04-25 11:22 | 28.43542 | -81.31999 | 91 ft | 19 kts | 359° |
| 2026-04-25 11:22 | 28.43716 | -81.32001 | 91 ft | 18 kts | 360° |
| 2026-04-25 11:22 | 28.43846 | -81.32001 | 91 ft | 18 kts | 360° |
| 2026-04-25 11:23 | 28.43945 | -81.31995 | 91 ft | 10 kts | 30° |
| 2026-04-25 11:23 | 28.43948 | -81.31918 | 91 ft | 11 kts | 116° |
| 2026-04-25 11:23 | 28.43918 | -81.31820 | 91 ft | 13 kts | 88° |
| 2026-04-25 11:23 | 28.43923 | -81.31692 | 91 ft | 18 kts | 88° |
| 2026-04-25 11:24 | 28.43924 | -81.31548 | 91 ft | 19 kts | 89° |
| 2026-04-25 11:24 | 28.43927 | -81.31398 | 91 ft | 18 kts | 88° |
| 2026-04-25 11:24 | 28.43934 | -81.31255 | 91 ft | 18 kts | 87° |
| 2026-04-25 11:24 | 28.43940 | -81.31108 | 89 ft | 19 kts | 87° |
| 2026-04-25 11:25 | 28.43946 | -81.30957 | 88 ft | 19 kts | 91° |
| 2026-04-25 11:25 | 28.43942 | -81.30804 | 88 ft | 18 kts | 97° |
| 2026-04-25 11:25 | 28.43930 | -81.30662 | 88 ft | 17 kts | 96° |
| 2026-04-25 11:25 | 28.43920 | -81.30523 | 90 ft | 17 kts | 94° |
| 2026-04-25 11:26 | 28.43914 | -81.30392 | 91 ft | 15 kts | 92° |
| 2026-04-25 11:26 | 28.43905 | -81.30277 | 91 ft | 12 kts | 114° |
| 2026-04-25 11:26 | 28.43839 | -81.30228 | 91 ft | 11 kts | 122° |
| 2026-04-25 11:26 | 28.43830 | -81.30137 | 91 ft | 13 kts | 92° |
| 2026-04-25 11:27 | 28.43822 | -81.30022 | 91 ft | 14 kts | 102° |
| 2026-04-25 11:27 | 28.43767 | -81.29923 | 91 ft | 15 kts | 145° |
| 2026-04-25 11:27 | 28.43663 | -81.29890 | 91 ft | 15 kts | 179° |
| 2026-04-25 11:27 | 28.43585 | -81.29887 | 91 ft | 16 kts | 180° |
| 2026-04-25 11:28 | 28.43429 | -81.29884 | 91 ft | 16 kts | 179° |
| 2026-04-25 11:28 | 28.43332 | -81.29896 | 91 ft | 12 kts | 214° |
| 2026-04-25 11:28 | 28.43294 | -81.29974 | 91 ft | 9 kts | 252° |
| 2026-04-25 11:28 | 28.43281 | -81.30045 | 90 ft | 9 kts | 267° |
| 2026-04-25 11:29 | 28.43315 | -81.30068 | 90 ft | 5 kts | 10° |
| 2026-04-25 11:29 | 28.43347 | -81.30062 | 90 ft | 4 kts | 11° |
| 2026-04-25 11:29 | 28.43353 | -81.30061 | 90 ft | 0 kts | 11° |